sensor_id;sensor_type;location;lat;lon;timestamp;temperature;humidity
17813;DHT22;9030;50.792;8.320;2023-04-01T00:00:45;8.40;99.90
17813;DHT22;9030;50.792;8.320;2023-04-01T00:03:12;8.40;99.90
17813;DHT22;9030;50.792;8.320;2023-04-01T00:05:39;8.40;99.90
17813;DHT22;9030;50.792;8.320;2023-04-01T00:08:06;8.30;99.90
17813;DHT22;9030;50.792;8.320;2023-04-01T00:10:35;8.40;99.90
17813;DHT22;9030;50.792;8.320;2023-04-01T00:13:02;8.30;99.90
17813;DHT22;9030;50.792;8.320;2023-04-01T00:15:29;8.30;99.90
17813;DHT22;9030;50.792;8.320;2023-04-01T00:17:55;8.30;99.90
17813;DHT22;9030;50.792;8.320;2023-04-01T00:20:22;8.30;99.90
17813;DHT22;9030;50.792;8.320;2023-04-01T00:22:49;8.30;99.90
17813;DHT22;9030;50.792;8.320;2023-04-01T00:25:16;8.30;99.90
17813;DHT22;9030;50.792;8.320;2023-04-01T00:27:45;8.30;99.90
17813;DHT22;9030;50.792;8.320;2023-04-01T00:30:12;8.30;99.90
17813;DHT22;9030;50.792;8.320;2023-04-01T00:32:39;8.30;99.90
17813;DHT22;9030;50.792;8.320;2023-04-01T00:35:07;8.30;99.90
17813;DHT22;9030;50.792;8.320;2023-04-01T00:37:35;8.30;99.90
17813;DHT22;9030;50.792;8.320;2023-04-01T00:40:03;8.30;99.90
17813;DHT22;9030;50.792;8.320;2023-04-01T00:42:30;8.30;99.90
17813;DHT22;9030;50.792;8.320;2023-04-01T00:45:30;8.30;99.90
17813;DHT22;9030;50.792;8.320;2023-04-01T00:47:59;8.30;99.90
17813;DHT22;9030;50.792;8.320;2023-04-01T00:50:28;8.30;99.90
17813;DHT22;9030;50.792;8.320;2023-04-01T00:52:55;8.30;99.90
17813;DHT22;9030;50.792;8.320;2023-04-01T00:55:23;8.30;99.90
17813;DHT22;9030;50.792;8.320;2023-04-01T00:57:53;8.30;99.90
17813;DHT22;9030;50.792;8.320;2023-04-01T01:00:22;8.30;99.90
17813;DHT22;9030;50.792;8.320;2023-04-01T01:02:51;8.30;99.90
17813;DHT22;9030;50.792;8.320;2023-04-01T01:05:23;8.20;99.90
17813;DHT22;9030;50.792;8.320;2023-04-01T01:08:01;8.20;99.90
17813;DHT22;9030;50.792;8.320;2023-04-01T01:10:31;8.20;99.90
17813;DHT22;9030;50.792;8.320;2023-04-01T01:13:04;8.20;99.90
17813;DHT22;9030;50.792;8.320;2023-04-01T01:15:37;8.10;99.90
17813;DHT22;9030;50.792;8.320;2023-04-01T01:18:11;8.20;99.90
17813;DHT22;9030;50.792;8.320;2023-04-01T01:20:53;8.20;99.90
17813;DHT22;9030;50.792;8.320;2023-04-01T01:26:46;8.20;99.90
17813;DHT22;9030;50.792;8.320;2023-04-01T01:29:29;8.20;99.90
17813;DHT22;9030;50.792;8.320;2023-04-01T01:32:05;8.20;99.90
17813;DHT22;9030;50.792;8.320;2023-04-01T01:34:48;8.10;99.90
17813;DHT22;9030;50.792;8.320;2023-04-01T01:37:21;8.20;99.90
17813;DHT22;9030;50.792;8.320;2023-04-01T01:39:53;8.10;99.90
17813;DHT22;9030;50.792;8.320;2023-04-01T01:42:22;8.10;99.90
17813;DHT22;9030;50.792;8.320;2023-04-01T01:44:52;8.10;99.90
17813;DHT22;9030;50.792;8.320;2023-04-01T01:47:21;8.10;99.90
17813;DHT22;9030;50.792;8.320;2023-04-01T01:49:49;8.10;99.90
17813;DHT22;9030;50.792;8.320;2023-04-01T01:52:18;8.00;99.90
17813;DHT22;9030;50.792;8.320;2023-04-01T01:54:48;8.10;99.90
17813;DHT22;9030;50.792;8.320;2023-04-01T01:57:17;8.00;99.90
17813;DHT22;9030;50.792;8.320;2023-04-01T01:59:47;8.10;99.90
17813;DHT22;9030;50.792;8.320;2023-04-01T02:02:15;8.00;99.90
17813;DHT22;9030;50.792;8.320;2023-04-01T02:04:46;8.00;99.90
17813;DHT22;9030;50.792;8.320;2023-04-01T02:07:17;8.00;99.90
17813;DHT22;9030;50.792;8.320;2023-04-01T02:09:47;8.00;99.90
17813;DHT22;9030;50.792;8.320;2023-04-01T02:12:16;8.00;99.90
17813;DHT22;9030;50.792;8.320;2023-04-01T02:14:47;8.00;99.90
17813;DHT22;9030;50.792;8.320;2023-04-01T02:17:18;8.00;99.90
17813;DHT22;9030;50.792;8.320;2023-04-01T02:19:49;8.00;99.90
17813;DHT22;9030;50.792;8.320;2023-04-01T02:22:20;8.00;99.90
17813;DHT22;9030;50.792;8.320;2023-04-01T02:24:51;8.00;99.90
17813;DHT22;9030;50.792;8.320;2023-04-01T02:27:20;7.90;99.90
17813;DHT22;9030;50.792;8.320;2023-04-01T02:29:47;7.90;99.90
17813;DHT22;9030;50.792;8.320;2023-04-01T02:32:14;8.00;99.90
17813;DHT22;9030;50.792;8.320;2023-04-01T02:34:42;8.00;99.90
17813;DHT22;9030;50.792;8.320;2023-04-01T02:37:10;8.00;99.90
17813;DHT22;9030;50.792;8.320;2023-04-01T02:39:50;8.00;99.90
17813;DHT22;9030;50.792;8.320;2023-04-01T02:42:17;7.90;99.90
17813;DHT22;9030;50.792;8.320;2023-04-01T02:44:44;7.90;99.90
17813;DHT22;9030;50.792;8.320;2023-04-01T02:47:12;8.00;99.90
17813;DHT22;9030;50.792;8.320;2023-04-01T02:49:39;8.00;99.90
17813;DHT22;9030;50.792;8.320;2023-04-01T02:52:07;8.00;99.90
17813;DHT22;9030;50.792;8.320;2023-04-01T02:54:33;8.00;99.90
17813;DHT22;9030;50.792;8.320;2023-04-01T02:57:01;8.00;99.90
17813;DHT22;9030;50.792;8.320;2023-04-01T02:59:28;8.00;99.90
17813;DHT22;9030;50.792;8.320;2023-04-01T03:01:57;8.00;99.90
17813;DHT22;9030;50.792;8.320;2023-04-01T03:04:24;8.00;99.90
17813;DHT22;9030;50.792;8.320;2023-04-01T03:06:50;8.00;99.90
17813;DHT22;9030;50.792;8.320;2023-04-01T03:09:17;8.00;99.90
17813;DHT22;9030;50.792;8.320;2023-04-01T03:11:44;8.00;99.90
17813;DHT22;9030;50.792;8.320;2023-04-01T03:14:12;8.00;99.90
17813;DHT22;9030;50.792;8.320;2023-04-01T03:16:39;8.00;99.90
17813;DHT22;9030;50.792;8.320;2023-04-01T03:19:05;8.00;99.90
17813;DHT22;9030;50.792;8.320;2023-04-01T03:21:41;7.90;99.90
17813;DHT22;9030;50.792;8.320;2023-04-01T03:24:08;8.00;99.90
17813;DHT22;9030;50.792;8.320;2023-04-01T03:26:35;8.00;99.90
17813;DHT22;9030;50.792;8.320;2023-04-01T03:29:02;7.90;99.90
17813;DHT22;9030;50.792;8.320;2023-04-01T03:31:30;8.00;99.90
17813;DHT22;9030;50.792;8.320;2023-04-01T03:33:57;8.00;99.90
17813;DHT22;9030;50.792;8.320;2023-04-01T03:36:24;8.00;99.90
17813;DHT22;9030;50.792;8.320;2023-04-01T03:38:51;8.00;99.90
17813;DHT22;9030;50.792;8.320;2023-04-01T03:41:18;7.90;99.90
17813;DHT22;9030;50.792;8.320;2023-04-01T03:43:45;7.90;99.90
17813;DHT22;9030;50.792;8.320;2023-04-01T03:46:17;7.90;99.90
17813;DHT22;9030;50.792;8.320;2023-04-01T03:48:45;7.90;99.90
17813;DHT22;9030;50.792;8.320;2023-04-01T03:51:12;7.90;99.90
17813;DHT22;9030;50.792;8.320;2023-04-01T03:53:38;7.90;99.90
17813;DHT22;9030;50.792;8.320;2023-04-01T03:56:06;7.90;99.90
17813;DHT22;9030;50.792;8.320;2023-04-01T03:58:33;7.90;99.90
17813;DHT22;9030;50.792;8.320;2023-04-01T04:01:00;7.90;99.90
17813;DHT22;9030;50.792;8.320;2023-04-01T04:03:26;7.90;99.90
17813;DHT22;9030;50.792;8.320;2023-04-01T04:05:54;7.90;99.90
17813;DHT22;9030;50.792;8.320;2023-04-01T04:08:22;7.80;99.90
17813;DHT22;9030;50.792;8.320;2023-04-01T04:10:54;7.90;99.90
17813;DHT22;9030;50.792;8.320;2023-04-01T04:13:21;7.80;99.90
17813;DHT22;9030;50.792;8.320;2023-04-01T04:15:48;7.80;99.90
17813;DHT22;9030;50.792;8.320;2023-04-01T04:18:15;7.80;99.90
17813;DHT22;9030;50.792;8.320;2023-04-01T04:20:44;7.90;99.90
17813;DHT22;9030;50.792;8.320;2023-04-01T04:23:13;7.80;99.90
17813;DHT22;9030;50.792;8.320;2023-04-01T04:25:40;7.80;99.90
17813;DHT22;9030;50.792;8.320;2023-04-01T04:28:07;7.90;99.90
17813;DHT22;9030;50.792;8.320;2023-04-01T04:30:34;7.80;99.90
17813;DHT22;9030;50.792;8.320;2023-04-01T04:33:00;7.80;99.90
17813;DHT22;9030;50.792;8.320;2023-04-01T04:35:27;7.80;99.90
17813;DHT22;9030;50.792;8.320;2023-04-01T04:37:54;7.70;99.90
17813;DHT22;9030;50.792;8.320;2023-04-01T04:40:22;7.70;99.90
17813;DHT22;9030;50.792;8.320;2023-04-01T04:42:49;7.70;99.90
17813;DHT22;9030;50.792;8.320;2023-04-01T04:45:23;7.70;99.90
17813;DHT22;9030;50.792;8.320;2023-04-01T04:47:50;7.60;99.90
17813;DHT22;9030;50.792;8.320;2023-04-01T04:50:17;7.60;99.90
17813;DHT22;9030;50.792;8.320;2023-04-01T04:52:44;7.60;99.90
17813;DHT22;9030;50.792;8.320;2023-04-01T04:55:11;7.60;99.90
17813;DHT22;9030;50.792;8.320;2023-04-01T04:57:39;7.60;99.90
17813;DHT22;9030;50.792;8.320;2023-04-01T05:00:20;7.60;99.90
17813;DHT22;9030;50.792;8.320;2023-04-01T05:02:47;7.60;99.90
17813;DHT22;9030;50.792;8.320;2023-04-01T05:05:14;7.60;99.90
17813;DHT22;9030;50.792;8.320;2023-04-01T05:07:41;7.60;99.90
17813;DHT22;9030;50.792;8.320;2023-04-01T05:10:08;7.60;99.90
17813;DHT22;9030;50.792;8.320;2023-04-01T05:12:35;7.60;99.90
17813;DHT22;9030;50.792;8.320;2023-04-01T05:15:06;7.60;99.90
17813;DHT22;9030;50.792;8.320;2023-04-01T05:17:34;7.50;99.90
17813;DHT22;9030;50.792;8.320;2023-04-01T05:20:01;7.50;99.90
17813;DHT22;9030;50.792;8.320;2023-04-01T05:22:28;7.60;99.90
17813;DHT22;9030;50.792;8.320;2023-04-01T05:24:55;7.60;99.90
17813;DHT22;9030;50.792;8.320;2023-04-01T05:27:22;7.60;99.90
17813;DHT22;9030;50.792;8.320;2023-04-01T05:29:51;7.60;99.90
17813;DHT22;9030;50.792;8.320;2023-04-01T05:32:19;7.60;99.90
17813;DHT22;9030;50.792;8.320;2023-04-01T05:34:46;7.60;99.90
17813;DHT22;9030;50.792;8.320;2023-04-01T05:37:12;7.60;99.90
17813;DHT22;9030;50.792;8.320;2023-04-01T05:39:40;7.60;99.90
17813;DHT22;9030;50.792;8.320;2023-04-01T05:42:06;7.60;99.90
17813;DHT22;9030;50.792;8.320;2023-04-01T05:44:34;7.60;99.90
17813;DHT22;9030;50.792;8.320;2023-04-01T05:47:01;7.70;99.90
17813;DHT22;9030;50.792;8.320;2023-04-01T05:49:29;7.70;99.90
17813;DHT22;9030;50.792;8.320;2023-04-01T05:52:00;7.70;99.90
17813;DHT22;9030;50.792;8.320;2023-04-01T05:54:27;7.70;99.90
17813;DHT22;9030;50.792;8.320;2023-04-01T05:56:54;7.70;99.90
17813;DHT22;9030;50.792;8.320;2023-04-01T05:59:21;7.70;99.90
17813;DHT22;9030;50.792;8.320;2023-04-01T06:01:47;7.80;99.90
17813;DHT22;9030;50.792;8.320;2023-04-01T06:04:15;7.80;99.90
17813;DHT22;9030;50.792;8.320;2023-04-01T06:06:44;7.80;99.90
17813;DHT22;9030;50.792;8.320;2023-04-01T06:09:14;7.80;99.90
17813;DHT22;9030;50.792;8.320;2023-04-01T06:11:51;7.80;99.90
17813;DHT22;9030;50.792;8.320;2023-04-01T06:14:30;7.90;99.90
17813;DHT22;9030;50.792;8.320;2023-04-01T06:17:13;7.90;99.90
17813;DHT22;9030;50.792;8.320;2023-04-01T06:19:48;7.90;99.90
17813;DHT22;9030;50.792;8.320;2023-04-01T06:22:41;7.90;99.90
17813;DHT22;9030;50.792;8.320;2023-04-01T06:25:38;8.00;99.90
17813;DHT22;9030;50.792;8.320;2023-04-01T06:28:46;8.00;99.90
17813;DHT22;9030;50.792;8.320;2023-04-01T06:31:26;8.10;99.90
17813;DHT22;9030;50.792;8.320;2023-04-01T06:34:10;8.10;99.90
17813;DHT22;9030;50.792;8.320;2023-04-01T06:36:52;8.10;99.90
17813;DHT22;9030;50.792;8.320;2023-04-01T06:39:40;8.20;99.90
17813;DHT22;9030;50.792;8.320;2023-04-01T06:42:21;8.20;99.90
17813;DHT22;9030;50.792;8.320;2023-04-01T06:44:58;8.20;99.90
17813;DHT22;9030;50.792;8.320;2023-04-01T06:47:36;8.20;99.90
17813;DHT22;9030;50.792;8.320;2023-04-01T06:50:15;8.20;99.90
17813;DHT22;9030;50.792;8.320;2023-04-01T06:52:51;8.20;99.90
17813;DHT22;9030;50.792;8.320;2023-04-01T06:55:30;8.20;99.90
17813;DHT22;9030;50.792;8.320;2023-04-01T06:58:18;8.30;99.90
17813;DHT22;9030;50.792;8.320;2023-04-01T07:00:49;8.30;99.90
17813;DHT22;9030;50.792;8.320;2023-04-01T07:03:21;8.40;99.90
17813;DHT22;9030;50.792;8.320;2023-04-01T07:05:49;8.40;99.90
17813;DHT22;9030;50.792;8.320;2023-04-01T07:08:18;8.50;99.90
17813;DHT22;9030;50.792;8.320;2023-04-01T07:10:56;8.50;99.90
17813;DHT22;9030;50.792;8.320;2023-04-01T07:13:26;8.50;99.90
17813;DHT22;9030;50.792;8.320;2023-04-01T07:15:59;8.50;99.90
17813;DHT22;9030;50.792;8.320;2023-04-01T07:18:34;8.60;99.90
17813;DHT22;9030;50.792;8.320;2023-04-01T07:21:04;8.60;99.90
17813;DHT22;9030;50.792;8.320;2023-04-01T07:23:42;8.70;99.90
17813;DHT22;9030;50.792;8.320;2023-04-01T07:26:17;8.70;99.90
17813;DHT22;9030;50.792;8.320;2023-04-01T07:28:44;8.70;99.90
17813;DHT22;9030;50.792;8.320;2023-04-01T07:31:18;8.70;99.90
17813;DHT22;9030;50.792;8.320;2023-04-01T07:33:53;8.70;99.90
17813;DHT22;9030;50.792;8.320;2023-04-01T07:36:32;8.70;99.90
17813;DHT22;9030;50.792;8.320;2023-04-01T07:39:08;8.70;99.90
17813;DHT22;9030;50.792;8.320;2023-04-01T07:41:45;8.70;99.90
17813;DHT22;9030;50.792;8.320;2023-04-01T07:44:25;8.70;99.90
17813;DHT22;9030;50.792;8.320;2023-04-01T07:47:02;8.70;99.90
17813;DHT22;9030;50.792;8.320;2023-04-01T07:49:54;8.70;99.90
17813;DHT22;9030;50.792;8.320;2023-04-01T07:52:29;8.70;99.90
17813;DHT22;9030;50.792;8.320;2023-04-01T07:55:01;8.80;99.90
17813;DHT22;9030;50.792;8.320;2023-04-01T07:57:43;8.80;99.90
17813;DHT22;9030;50.792;8.320;2023-04-01T08:00:16;8.90;99.90
17813;DHT22;9030;50.792;8.320;2023-04-01T08:03:00;8.90;99.90
17813;DHT22;9030;50.792;8.320;2023-04-01T08:05:35;8.80;99.90
17813;DHT22;9030;50.792;8.320;2023-04-01T08:08:11;8.90;99.90
17813;DHT22;9030;50.792;8.320;2023-04-01T08:10:47;8.80;99.90
17813;DHT22;9030;50.792;8.320;2023-04-01T08:13:25;8.80;99.90
17813;DHT22;9030;50.792;8.320;2023-04-01T08:16:05;8.90;99.90
17813;DHT22;9030;50.792;8.320;2023-04-01T08:18:40;8.90;99.90
17813;DHT22;9030;50.792;8.320;2023-04-01T08:21:13;9.00;99.90
17813;DHT22;9030;50.792;8.320;2023-04-01T08:23:43;9.10;99.90
17813;DHT22;9030;50.792;8.320;2023-04-01T08:26:14;9.10;99.90
17813;DHT22;9030;50.792;8.320;2023-04-01T08:28:49;9.10;99.90
17813;DHT22;9030;50.792;8.320;2023-04-01T08:31:23;9.10;99.90
17813;DHT22;9030;50.792;8.320;2023-04-01T08:33:54;9.30;99.90
17813;DHT22;9030;50.792;8.320;2023-04-01T08:36:24;9.30;99.90
17813;DHT22;9030;50.792;8.320;2023-04-01T08:38:55;9.40;99.90
17813;DHT22;9030;50.792;8.320;2023-04-01T08:41:52;9.30;99.90
17813;DHT22;9030;50.792;8.320;2023-04-01T08:44:37;9.30;99.90
17813;DHT22;9030;50.792;8.320;2023-04-01T08:47:24;9.30;99.90
17813;DHT22;9030;50.792;8.320;2023-04-01T08:50:17;9.40;99.90
17813;DHT22;9030;50.792;8.320;2023-04-01T08:52:57;9.30;99.90
17813;DHT22;9030;50.792;8.320;2023-04-01T08:55:36;9.30;99.90
17813;DHT22;9030;50.792;8.320;2023-04-01T08:58:40;9.40;99.90
17813;DHT22;9030;50.792;8.320;2023-04-01T09:01:21;9.30;99.90
17813;DHT22;9030;50.792;8.320;2023-04-01T09:04:03;9.40;99.90
17813;DHT22;9030;50.792;8.320;2023-04-01T09:06:43;9.40;99.90
17813;DHT22;9030;50.792;8.320;2023-04-01T09:12:43;9.40;99.90
17813;DHT22;9030;50.792;8.320;2023-04-01T09:15:35;9.40;99.90
17813;DHT22;9030;50.792;8.320;2023-04-01T09:21:42;9.40;99.90
17813;DHT22;9030;50.792;8.320;2023-04-01T09:24:50;9.40;99.90
17813;DHT22;9030;50.792;8.320;2023-04-01T09:27:27;9.50;99.90
17813;DHT22;9030;50.792;8.320;2023-04-01T09:30:28;9.60;99.90
17813;DHT22;9030;50.792;8.320;2023-04-01T09:36:03;9.90;99.90
17813;DHT22;9030;50.792;8.320;2023-04-01T09:38:48;10.00;99.90
17813;DHT22;9030;50.792;8.320;2023-04-01T09:41:29;10.10;99.90
17813;DHT22;9030;50.792;8.320;2023-04-01T09:44:01;10.00;99.90
17813;DHT22;9030;50.792;8.320;2023-04-01T09:46:39;9.90;99.90
17813;DHT22;9030;50.792;8.320;2023-04-01T09:49:27;9.80;99.90
17813;DHT22;9030;50.792;8.320;2023-04-01T09:52:12;9.90;99.90
17813;DHT22;9030;50.792;8.320;2023-04-01T09:54:55;9.90;99.90
17813;DHT22;9030;50.792;8.320;2023-04-01T10:00:47;10.00;99.90
17813;DHT22;9030;50.792;8.320;2023-04-01T10:06:36;10.20;99.90
17813;DHT22;9030;50.792;8.320;2023-04-01T10:12:42;10.10;99.90
17813;DHT22;9030;50.792;8.320;2023-04-01T10:15:34;10.00;99.90
17813;DHT22;9030;50.792;8.320;2023-04-01T10:18:46;10.00;99.90
17813;DHT22;9030;50.792;8.320;2023-04-01T10:21:35;10.10;99.90
17813;DHT22;9030;50.792;8.320;2023-04-01T10:24:46;10.10;99.90
17813;DHT22;9030;50.792;8.320;2023-04-01T10:28:08;10.10;99.90
17813;DHT22;9030;50.792;8.320;2023-04-01T10:34:06;10.20;99.90
17813;DHT22;9030;50.792;8.320;2023-04-01T10:36:50;10.10;99.90
17813;DHT22;9030;50.792;8.320;2023-04-01T10:39:53;10.10;99.90
17813;DHT22;9030;50.792;8.320;2023-04-01T10:51:25;10.20;99.90
17813;DHT22;9030;50.792;8.320;2023-04-01T10:54:17;10.10;99.90
17813;DHT22;9030;50.792;8.320;2023-04-01T10:56:57;10.10;99.90
17813;DHT22;9030;50.792;8.320;2023-04-01T11:09:12;10.30;99.90
17813;DHT22;9030;50.792;8.320;2023-04-01T11:12:21;10.40;99.90
17813;DHT22;9030;50.792;8.320;2023-04-01T11:15:26;10.30;99.90
17813;DHT22;9030;50.792;8.320;2023-04-01T11:18:19;10.40;99.90
17813;DHT22;9030;50.792;8.320;2023-04-01T11:24:31;10.40;99.90
17813;DHT22;9030;50.792;8.320;2023-04-01T11:27:15;10.30;99.90
17813;DHT22;9030;50.792;8.320;2023-04-01T11:30:02;10.30;99.90
17813;DHT22;9030;50.792;8.320;2023-04-01T11:32:46;10.20;99.90
17813;DHT22;9030;50.792;8.320;2023-04-01T11:35:29;10.30;99.90
17813;DHT22;9030;50.792;8.320;2023-04-01T11:38:06;10.20;99.90
17813;DHT22;9030;50.792;8.320;2023-04-01T11:40:45;10.20;99.90
17813;DHT22;9030;50.792;8.320;2023-04-01T11:43:16;10.20;99.90
17813;DHT22;9030;50.792;8.320;2023-04-01T11:45:52;10.10;99.90
17813;DHT22;9030;50.792;8.320;2023-04-01T11:48:36;10.10;99.90
17813;DHT22;9030;50.792;8.320;2023-04-01T11:51:16;10.10;99.90
17813;DHT22;9030;50.792;8.320;2023-04-01T11:53:53;10.00;99.90
17813;DHT22;9030;50.792;8.320;2023-04-01T11:56:42;10.10;99.90
17813;DHT22;9030;50.792;8.320;2023-04-01T12:02:35;10.20;99.90
17813;DHT22;9030;50.792;8.320;2023-04-01T12:05:34;10.10;99.90
17813;DHT22;9030;50.792;8.320;2023-04-01T12:08:10;10.20;99.90
17813;DHT22;9030;50.792;8.320;2023-04-01T12:10:45;10.40;99.90
17813;DHT22;9030;50.792;8.320;2023-04-01T12:13:29;10.50;99.90
17813;DHT22;9030;50.792;8.320;2023-04-01T12:16:13;10.50;99.90
17813;DHT22;9030;50.792;8.320;2023-04-01T12:18:48;10.50;99.90
17813;DHT22;9030;50.792;8.320;2023-04-01T12:21:25;10.50;99.90
17813;DHT22;9030;50.792;8.320;2023-04-01T12:24:25;10.40;99.90
17813;DHT22;9030;50.792;8.320;2023-04-01T12:27:24;10.40;99.90
17813;DHT22;9030;50.792;8.320;2023-04-01T12:33:11;10.20;99.90
17813;DHT22;9030;50.792;8.320;2023-04-01T12:35:50;10.20;99.90
17813;DHT22;9030;50.792;8.320;2023-04-01T12:38:28;10.20;99.90
17813;DHT22;9030;50.792;8.320;2023-04-01T12:41:07;10.20;99.90
17813;DHT22;9030;50.792;8.320;2023-04-01T12:44:09;10.20;99.90
17813;DHT22;9030;50.792;8.320;2023-04-01T12:46:51;10.10;99.90
17813;DHT22;9030;50.792;8.320;2023-04-01T12:49:41;10.00;99.90
17813;DHT22;9030;50.792;8.320;2023-04-01T12:52:19;10.00;99.90
17813;DHT22;9030;50.792;8.320;2023-04-01T12:55:34;10.00;99.90
17813;DHT22;9030;50.792;8.320;2023-04-01T12:58:46;10.10;99.90
17813;DHT22;9030;50.792;8.320;2023-04-01T13:01:29;10.20;99.90
17813;DHT22;9030;50.792;8.320;2023-04-01T13:07:03;10.70;99.90
17813;DHT22;9030;50.792;8.320;2023-04-01T13:09:53;10.70;99.90
17813;DHT22;9030;50.792;8.320;2023-04-01T13:12:35;10.80;99.90
17813;DHT22;9030;50.792;8.320;2023-04-01T13:15:14;10.90;99.90
17813;DHT22;9030;50.792;8.320;2023-04-01T13:17:52;10.90;99.90
17813;DHT22;9030;50.792;8.320;2023-04-01T13:20:27;10.90;99.90
17813;DHT22;9030;50.792;8.320;2023-04-01T13:23:04;11.00;99.90
17813;DHT22;9030;50.792;8.320;2023-04-01T13:25:39;11.00;99.90
17813;DHT22;9030;50.792;8.320;2023-04-01T13:28:12;10.90;99.90
17813;DHT22;9030;50.792;8.320;2023-04-01T13:30:47;10.80;99.90
17813;DHT22;9030;50.792;8.320;2023-04-01T13:33:24;10.80;99.90
17813;DHT22;9030;50.792;8.320;2023-04-01T13:36:06;10.90;99.90
17813;DHT22;9030;50.792;8.320;2023-04-01T13:38:53;11.00;99.90
17813;DHT22;9030;50.792;8.320;2023-04-01T13:41:45;11.30;99.90
17813;DHT22;9030;50.792;8.320;2023-04-01T13:44:19;11.50;99.90
17813;DHT22;9030;50.792;8.320;2023-04-01T13:46:59;11.60;99.90
17813;DHT22;9030;50.792;8.320;2023-04-01T13:49:52;11.60;99.90
17813;DHT22;9030;50.792;8.320;2023-04-01T13:55:46;11.20;99.90
17813;DHT22;9030;50.792;8.320;2023-04-01T13:58:38;11.00;99.90
17813;DHT22;9030;50.792;8.320;2023-04-01T14:01:14;10.80;99.90
17813;DHT22;9030;50.792;8.320;2023-04-01T14:04:30;10.70;99.90
17813;DHT22;9030;50.792;8.320;2023-04-01T14:07:18;10.50;99.90
17813;DHT22;9030;50.792;8.320;2023-04-01T14:10:02;10.50;99.90
17813;DHT22;9030;50.792;8.320;2023-04-01T14:12:39;10.40;99.90
17813;DHT22;9030;50.792;8.320;2023-04-01T14:15:25;10.50;99.90
17813;DHT22;9030;50.792;8.320;2023-04-01T14:18:20;10.40;99.90
17813;DHT22;9030;50.792;8.320;2023-04-01T14:20:55;10.40;99.90
17813;DHT22;9030;50.792;8.320;2023-04-01T14:23:41;10.50;99.90
17813;DHT22;9030;50.792;8.320;2023-04-01T14:26:26;10.50;99.90
17813;DHT22;9030;50.792;8.320;2023-04-01T14:29:02;10.60;99.90
17813;DHT22;9030;50.792;8.320;2023-04-01T14:31:39;10.70;99.90
17813;DHT22;9030;50.792;8.320;2023-04-01T14:34:21;10.70;99.90
17813;DHT22;9030;50.792;8.320;2023-04-01T14:37:00;10.70;99.90
17813;DHT22;9030;50.792;8.320;2023-04-01T14:39:43;10.70;99.90
17813;DHT22;9030;50.792;8.320;2023-04-01T14:42:24;10.80;99.90
17813;DHT22;9030;50.792;8.320;2023-04-01T14:45:18;11.00;99.90
17813;DHT22;9030;50.792;8.320;2023-04-01T14:47:50;11.00;99.90
17813;DHT22;9030;50.792;8.320;2023-04-01T14:50:21;11.10;99.90
17813;DHT22;9030;50.792;8.320;2023-04-01T14:52:56;11.10;99.90
17813;DHT22;9030;50.792;8.320;2023-04-01T14:55:31;11.00;99.90
17813;DHT22;9030;50.792;8.320;2023-04-01T14:58:00;11.10;99.90
17813;DHT22;9030;50.792;8.320;2023-04-01T15:00:47;11.10;99.90
17813;DHT22;9030;50.792;8.320;2023-04-01T15:03:20;10.90;99.90
17813;DHT22;9030;50.792;8.320;2023-04-01T15:05:53;10.80;99.90
17813;DHT22;9030;50.792;8.320;2023-04-01T15:08:23;10.80;99.90
17813;DHT22;9030;50.792;8.320;2023-04-01T15:11:21;10.80;99.90
17813;DHT22;9030;50.792;8.320;2023-04-01T15:14:05;10.80;99.90
17813;DHT22;9030;50.792;8.320;2023-04-01T15:16:45;10.70;99.90
17813;DHT22;9030;50.792;8.320;2023-04-01T15:19:21;10.70;99.90
17813;DHT22;9030;50.792;8.320;2023-04-01T15:22:20;10.60;99.90
17813;DHT22;9030;50.792;8.320;2023-04-01T15:25:03;10.50;99.90
17813;DHT22;9030;50.792;8.320;2023-04-01T15:27:37;10.50;99.90
17813;DHT22;9030;50.792;8.320;2023-04-01T15:30:23;10.40;99.90
17813;DHT22;9030;50.792;8.320;2023-04-01T15:33:11;10.40;99.90
17813;DHT22;9030;50.792;8.320;2023-04-01T15:35:46;10.50;99.90
17813;DHT22;9030;50.792;8.320;2023-04-01T15:38:27;10.40;99.90
17813;DHT22;9030;50.792;8.320;2023-04-01T15:41:02;10.50;99.90
17813;DHT22;9030;50.792;8.320;2023-04-01T15:43:36;10.50;99.90
17813;DHT22;9030;50.792;8.320;2023-04-01T15:46:19;10.40;99.90
17813;DHT22;9030;50.792;8.320;2023-04-01T15:49:02;10.40;99.90
17813;DHT22;9030;50.792;8.320;2023-04-01T15:51:58;10.40;99.90
17813;DHT22;9030;50.792;8.320;2023-04-01T15:54:47;10.30;99.90
17813;DHT22;9030;50.792;8.320;2023-04-01T15:57:26;10.30;99.90
17813;DHT22;9030;50.792;8.320;2023-04-01T16:00:09;10.20;99.90
17813;DHT22;9030;50.792;8.320;2023-04-01T16:02:45;10.20;99.90
17813;DHT22;9030;50.792;8.320;2023-04-01T16:05:27;10.20;99.90
17813;DHT22;9030;50.792;8.320;2023-04-01T16:08:19;10.30;99.90
17813;DHT22;9030;50.792;8.320;2023-04-01T16:10:58;10.30;99.90
17813;DHT22;9030;50.792;8.320;2023-04-01T16:13:41;10.30;99.90
17813;DHT22;9030;50.792;8.320;2023-04-01T16:16:19;10.30;99.90
17813;DHT22;9030;50.792;8.320;2023-04-01T16:19:09;10.20;99.90
17813;DHT22;9030;50.792;8.320;2023-04-01T16:21:46;10.10;99.90
17813;DHT22;9030;50.792;8.320;2023-04-01T16:24:19;10.10;99.90
17813;DHT22;9030;50.792;8.320;2023-04-01T16:26:52;10.10;99.90
17813;DHT22;9030;50.792;8.320;2023-04-01T16:29:27;10.10;99.90
17813;DHT22;9030;50.792;8.320;2023-04-01T16:32:12;10.20;99.90
17813;DHT22;9030;50.792;8.320;2023-04-01T16:34:44;10.10;99.90
17813;DHT22;9030;50.792;8.320;2023-04-01T16:37:16;10.20;99.90
17813;DHT22;9030;50.792;8.320;2023-04-01T16:39:47;10.10;99.90
17813;DHT22;9030;50.792;8.320;2023-04-01T16:42:34;10.10;99.90
17813;DHT22;9030;50.792;8.320;2023-04-01T16:45:17;10.10;99.90
17813;DHT22;9030;50.792;8.320;2023-04-01T16:47:48;10.10;99.90
17813;DHT22;9030;50.792;8.320;2023-04-01T16:50:20;10.10;99.90
17813;DHT22;9030;50.792;8.320;2023-04-01T16:52:58;10.00;99.90
17813;DHT22;9030;50.792;8.320;2023-04-01T16:55:35;10.00;99.90
17813;DHT22;9030;50.792;8.320;2023-04-01T16:58:08;10.00;99.90
17813;DHT22;9030;50.792;8.320;2023-04-01T17:00:38;9.90;99.90
17813;DHT22;9030;50.792;8.320;2023-04-01T17:03:12;9.80;99.90
17813;DHT22;9030;50.792;8.320;2023-04-01T17:05:52;9.70;99.90
17813;DHT22;9030;50.792;8.320;2023-04-01T17:08:33;9.70;99.90
17813;DHT22;9030;50.792;8.320;2023-04-01T17:11:09;9.60;99.90
17813;DHT22;9030;50.792;8.320;2023-04-01T17:13:46;9.60;99.90
17813;DHT22;9030;50.792;8.320;2023-04-01T17:16:23;9.50;99.90
17813;DHT22;9030;50.792;8.320;2023-04-01T17:18:59;9.50;99.90
17813;DHT22;9030;50.792;8.320;2023-04-01T17:21:35;9.40;99.90
17813;DHT22;9030;50.792;8.320;2023-04-01T17:24:14;9.40;99.90
17813;DHT22;9030;50.792;8.320;2023-04-01T17:26:52;9.40;99.90
17813;DHT22;9030;50.792;8.320;2023-04-01T17:29:26;9.40;99.90
17813;DHT22;9030;50.792;8.320;2023-04-01T17:32:03;9.40;99.90
17813;DHT22;9030;50.792;8.320;2023-04-01T17:34:52;9.40;99.90
17813;DHT22;9030;50.792;8.320;2023-04-01T17:37:37;9.40;99.90
17813;DHT22;9030;50.792;8.320;2023-04-01T17:40:28;9.40;99.90
17813;DHT22;9030;50.792;8.320;2023-04-01T17:43:02;9.40;99.90
17813;DHT22;9030;50.792;8.320;2023-04-01T17:45:37;9.40;99.90
17813;DHT22;9030;50.792;8.320;2023-04-01T17:48:16;9.30;99.90
17813;DHT22;9030;50.792;8.320;2023-04-01T17:50:54;9.30;99.90
17813;DHT22;9030;50.792;8.320;2023-04-01T17:53:34;9.30;99.90
17813;DHT22;9030;50.792;8.320;2023-04-01T17:56:12;9.20;99.90